Terminal Aerodrome Forecast
Issued by NWS Cheyenne, WY

Home | Current Version | Previous Version | Text Only | Print | Product List | Glossary On
Versions: 1 2 3 4 5 6 7 8 9 10 11 12 13 14 15 16 17 18 19
000
FTUS45 KCYS 281327 AAB
TAFCYS
TAF AMD
KCYS 281327Z 2813/2912 05012KT P6SM BKN010
      TEMPO 2813/2815 1/4SM FG VV002
     FM281500 02012KT P6SM BKN100
     FM282000 07015G20KT P6SM VCTS BKN050CB BKN100=

USA.gov is the U.S. government's official web portal to all federal, state and local government web resources and services.